Time;durP1;ratioP1;P1;durP2;ratioP2;P2;SDS_P1;SDS_P2;PMS_P1;PMS_P2;Temp;Humidity;BMP_temperature;BMP_pressure;BME280_temperature;BME280_humidity;BME280_pressure;Samples;Min_cycle;Max_cycle;Signal;HPM_P1;HPM_P2
2023/08/19 00:01:24;;;;;;;4.30;3.65;;;22.80;99.90;;;;;;5066520;28;20318;-62
2023/08/19 00:03:53;;;;;;;9.88;4.20;;;22.80;99.90;;;;;;5067766;28;20208;-62
2023/08/19 00:06:35;;;;;;;9.55;3.85;;;22.80;99.90;;;;;;5071352;28;20200;-62
2023/08/19 00:09:04;;;;;;;11.38;4.15;;;22.80;99.90;;;;;;5070396;28;20204;-62
2023/08/19 00:11:33;;;;;;;5.47;3.38;;;22.70;99.90;;;;;;5063035;28;20221;-62
2023/08/19 00:14:02;;;;;;;11.02;3.80;;;22.70;99.90;;;;;;5070004;28;20314;-61
2023/08/19 00:16:30;;;;;;;14.77;4.40;;;22.70;99.90;;;;;;5056968;28;20232;-62
2023/08/19 00:18:58;;;;;;;14.48;3.70;;;22.70;99.90;;;;;;5067527;28;20204;-59
2023/08/19 00:21:26;;;;;;;8.60;3.88;;;22.60;99.90;;;;;;5066009;28;20213;-61
2023/08/19 00:23:54;;;;;;;5.18;3.78;;;22.60;99.90;;;;;;5063254;28;20624;-61
2023/08/19 00:26:22;;;;;;;4.07;3.58;;;22.60;99.90;;;;;;5050852;28;20240;-63
2023/08/19 00:28:51;;;;;;;4.60;3.80;;;22.60;99.90;;;;;;5067735;28;20228;-61
2023/08/19 00:31:19;;;;;;;10.40;4.03;;;22.60;99.90;;;;;;5069501;28;20221;-62
2023/08/19 00:33:47;;;;;;;9.20;3.63;;;22.60;99.90;;;;;;5051174;28;20212;-62
2023/08/19 00:36:15;;;;;;;7.60;4.07;;;22.50;99.90;;;;;;5051082;28;20209;-63
2023/08/19 00:38:44;;;;;;;9.52;4.13;;;22.50;99.90;;;;;;5050887;28;20608;-62
2023/08/19 00:41:12;;;;;;;4.35;3.72;;;22.50;99.90;;;;;;5067730;28;20228;-62
2023/08/19 00:43:40;;;;;;;13.95;4.50;;;22.50;99.90;;;;;;5052517;28;20198;-62
2023/08/19 00:46:09;;;;;;;7.68;4.10;;;22.50;99.90;;;;;;5071136;28;20284;-62
2023/08/19 00:48:37;;;;;;;8.85;4.07;;;22.50;99.90;;;;;;5054851;28;20221;-61
2023/08/19 00:51:05;;;;;;;8.50;3.90;;;22.50;99.90;;;;;;5063731;28;20814;-61
2023/08/19 00:53:34;;;;;;;8.20;3.33;;;22.40;99.90;;;;;;5070001;28;20201;-62
2023/08/19 00:56:02;;;;;;;9.60;3.72;;;22.40;99.90;;;;;;5062240;28;20201;-62
2023/08/19 00:58:30;;;;;;;7.53;3.72;;;22.40;99.90;;;;;;5060658;28;20561;-62
2023/08/19 01:00:58;;;;;;;5.53;3.55;;;22.40;99.90;;;;;;5064681;28;20282;-62
2023/08/19 01:03:27;;;;;;;7.68;3.60;;;22.40;99.90;;;;;;5062457;28;20248;-62
2023/08/19 01:06:02;;;;;;;11.02;3.65;;;22.40;99.90;;;;;;5054502;28;20201;-63
2023/08/19 01:08:34;;;;;;;10.88;3.83;;;22.40;99.90;;;;;;5060290;28;20219;-62
2023/08/19 01:11:03;;;;;;;7.18;3.67;;;22.40;99.90;;;;;;5066133;28;20295;-62
2023/08/19 01:13:33;;;;;;;12.43;4.13;;;22.40;99.90;;;;;;5074126;28;20687;-61
2023/08/19 01:16:07;;;;;;;9.80;3.80;;;22.30;99.90;;;;;;5073470;28;20292;-62
2023/08/19 01:18:37;;;;;;;8.77;3.85;;;22.30;99.90;;;;;;5064991;28;20211;-63
2023/08/19 01:21:04;;;;;;;8.80;4.38;;;22.30;99.90;;;;;;5067247;28;20256;-62
2023/08/19 01:23:33;;;;;;;6.80;3.80;;;22.20;99.90;;;;;;5054323;28;20627;-62
2023/08/19 01:26:03;;;;;;;4.72;3.60;;;22.20;99.90;;;;;;5054372;28;20307;-62
2023/08/19 01:28:31;;;;;;;3.63;3.33;;;22.20;99.90;;;;;;5067752;28;20228;-60
2023/08/19 01:30:59;;;;;;;5.93;3.50;;;22.20;99.90;;;;;;5072505;28;20303;-62
2023/08/19 01:33:27;;;;;;;5.93;3.70;;;22.10;99.90;;;;;;5065491;28;20197;-62
2023/08/19 01:36:04;;;;;;;5.30;3.60;;;22.10;99.90;;;;;;5074155;28;20295;-63
2023/08/19 01:38:35;;;;;;;3.90;3.40;;;22.10;99.90;;;;;;5073102;28;20200;-62
2023/08/19 01:41:04;;;;;;;8.00;4.03;;;22.10;99.90;;;;;;5067081;28;20221;-62
2023/08/19 01:43:32;;;;;;;5.60;3.65;;;22.10;99.90;;;;;;5053951;28;20750;-61
2023/08/19 01:46:00;;;;;;;3.60;2.85;;;22.10;99.90;;;;;;5064861;28;20679;-62
2023/08/19 01:48:28;;;;;;;5.90;3.40;;;22.10;99.90;;;;;;5064742;28;20216;-60
2023/08/19 01:50:56;;;;;;;5.97;4.07;;;22.10;99.90;;;;;;5064899;28;20774;-62
2023/08/19 01:53:24;;;;;;;5.80;3.50;;;22.10;99.90;;;;;;5064454;28;20229;-61
2023/08/19 01:55:52;;;;;;;5.57;3.70;;;22.10;99.90;;;;;;5067165;28;20615;-62
2023/08/19 01:58:22;;;;;;;7.47;3.80;;;22.10;99.90;;;;;;5062747;28;20201;-61
2023/08/19 02:00:50;;;;;;;9.55;3.40;;;22.20;99.90;;;;;;5068848;28;20286;-62
2023/08/19 02:03:18;;;;;;;7.75;3.97;;;22.10;99.90;;;;;;5066670;28;20556;-62
2023/08/19 02:05:46;;;;;;;8.25;3.72;;;22.10;99.90;;;;;;5073030;28;20258;-63
2023/08/19 02:08:14;;;;;;;7.68;3.63;;;22.10;99.90;;;;;;5072684;28;20289;-62
2023/08/19 02:10:42;;;;;;;6.45;3.33;;;22.10;99.90;;;;;;5064854;28;20259;-62
2023/08/19 02:13:10;;;;;;;3.88;3.28;;;22.10;99.90;;;;;;5057110;28;20275;-62
2023/08/19 02:15:39;;;;;;;6.10;3.47;;;22.10;99.90;;;;;;5059277;28;20196;-62
2023/08/19 02:18:07;;;;;;;5.05;3.78;;;22.00;99.90;;;;;;5065482;28;20722;-62
2023/08/19 02:20:35;;;;;;;5.55;3.38;;;22.00;99.90;;;;;;5068894;28;20209;-62
2023/08/19 02:23:03;;;;;;;3.95;3.65;;;22.00;99.90;;;;;;5068618;28;20884;-62
2023/08/19 02:25:31;;;;;;;5.57;3.30;;;22.00;99.90;;;;;;5072866;28;20317;-62
2023/08/19 02:27:59;;;;;;;8.75;4.10;;;22.00;99.90;;;;;;5072375;28;20224;-62
2023/08/19 02:30:27;;;;;;;11.68;4.13;;;21.90;99.90;;;;;;5066617;28;20208;-63
2023/08/19 02:32:56;;;;;;;7.10;3.42;;;21.90;99.90;;;;;;5067112;28;20319;-62
2023/08/19 02:35:24;;;;;;;4.97;3.65;;;21.90;99.90;;;;;;5052669;28;20298;-60
2023/08/19 02:37:52;;;;;;;7.68;3.92;;;21.90;99.90;;;;;;5053132;28;20284;-62
2023/08/19 02:40:20;;;;;;;6.13;3.42;;;21.90;99.90;;;;;;5055431;28;20208;-61
2023/08/19 02:42:48;;;;;;;3.58;3.38;;;21.80;99.90;;;;;;5064781;28;20224;-60
2023/08/19 02:45:16;;;;;;;5.60;3.40;;;21.80;99.90;;;;;;5071785;28;20232;-62
2023/08/19 02:47:44;;;;;;;6.95;4.07;;;21.80;99.90;;;;;;5068326;28;20289;-62
2023/08/19 02:50:13;;;;;;;3.92;3.30;;;21.90;99.90;;;;;;5061474;28;20213;-62
2023/08/19 02:52:41;;;;;;;7.65;3.80;;;21.90;99.90;;;;;;5071899;28;20248;-62
2023/08/19 02:55:09;;;;;;;10.32;3.80;;;21.80;99.90;;;;;;5058929;28;20240;-62
2023/08/19 02:57:37;;;;;;;6.65;3.55;;;21.90;99.90;;;;;;5064159;28;20200;-62
2023/08/19 03:00:07;;;;;;;9.15;3.70;;;21.90;99.90;;;;;;5064681;28;20208;-60
2023/08/19 03:02:35;;;;;;;3.50;3.22;;;21.90;99.90;;;;;;5063437;28;20258;-62
2023/08/19 03:05:04;;;;;;;7.53;3.90;;;21.90;99.90;;;;;;5058486;28;20251;-61
2023/08/19 03:07:33;;;;;;;4.90;3.70;;;21.90;99.90;;;;;;5067801;28;20749;-62
2023/08/19 03:10:01;;;;;;;4.55;3.22;;;21.90;99.90;;;;;;5065921;28;20227;-62
2023/08/19 03:12:29;;;;;;;6.22;3.33;;;21.90;99.90;;;;;;5053516;28;20264;-62
2023/08/19 03:14:57;;;;;;;8.38;3.15;;;21.90;99.90;;;;;;5051878;28;20236;-62
2023/08/19 03:17:25;;;;;;;7.30;3.60;;;21.90;99.90;;;;;;5068456;28;20213;-60
2023/08/19 03:19:53;;;;;;;7.93;3.80;;;21.90;99.90;;;;;;5058457;28;20209;-62
2023/08/19 03:22:21;;;;;;;13.98;4.50;;;21.80;99.90;;;;;;5052316;28;20659;-63
2023/08/19 03:24:50;;;;;;;7.30;3.60;;;21.80;99.90;;;;;;5051811;28;20205;-63
2023/08/19 03:27:18;;;;;;;11.27;3.70;;;21.90;99.90;;;;;;5056715;28;20205;-62
2023/08/19 03:29:46;;;;;;;6.47;3.88;;;21.80;99.90;;;;;;5070772;28;20274;-62
2023/08/19 03:32:13;;;;;;;5.32;3.67;;;21.80;99.90;;;;;;5065183;28;20248;-61
2023/08/19 03:34:41;;;;;;;3.75;3.38;;;21.80;99.90;;;;;;5051902;28;20233;-61
2023/08/19 03:37:09;;;;;;;6.85;3.53;;;21.80;99.90;;;;;;5061217;28;20262;-62
2023/08/19 03:39:37;;;;;;;5.93;3.97;;;21.80;99.90;;;;;;5055158;28;20276;-63
2023/08/19 03:42:07;;;;;;;15.65;3.63;;;21.80;99.90;;;;;;5070658;28;20727;-59
2023/08/19 03:44:35;;;;;;;11.65;3.83;;;21.80;99.90;;;;;;5062462;28;20200;-62
2023/08/19 03:47:03;;;;;;;12.95;4.07;;;21.70;99.90;;;;;;5067335;28;20232;-62
2023/08/19 03:49:30;;;;;;;10.80;3.72;;;21.70;99.90;;;;;;5068510;28;20764;-62
2023/08/19 03:51:58;;;;;;;10.20;4.13;;;21.60;99.90;;;;;;5051793;28;20715;-62
2023/08/19 03:54:26;;;;;;;6.25;3.65;;;21.60;99.90;;;;;;5052615;28;20209;-60
2023/08/19 03:56:54;;;;;;;5.07;3.88;;;21.50;99.90;;;;;;5061162;28;20309;-60
2023/08/19 03:59:23;;;;;;;5.15;3.20;;;21.50;99.90;;;;;;5068689;28;20225;-62
2023/08/19 04:01:52;;;;;;;9.38;3.60;;;21.40;99.90;;;;;;5074232;22;20855;-58
2023/08/19 04:04:20;;;;;;;5.28;3.45;;;21.40;99.90;;;;;;5043244;28;20198;-58
2023/08/19 04:06:48;;;;;;;6.78;3.70;;;21.30;99.90;;;;;;5051108;28;20201;-58
2023/08/19 04:09:15;;;;;;;7.53;4.00;;;21.30;99.90;;;;;;5051231;28;20271;-57
2023/08/19 04:11:43;;;;;;;3.92;3.53;;;21.20;99.90;;;;;;5043097;28;20267;-59
2023/08/19 04:14:12;;;;;;;12.05;4.00;;;21.20;99.90;;;;;;5050658;28;20209;-59
2023/08/19 04:16:41;;;;;;;7.03;3.72;;;21.20;99.90;;;;;;5033184;28;20206;-58
2023/08/19 04:19:10;;;;;;;5.10;3.80;;;21.20;99.90;;;;;;5049792;28;20255;-59
2023/08/19 04:21:37;;;;;;;6.95;3.60;;;21.20;99.90;;;;;;5051146;28;20716;-59
2023/08/19 04:24:06;;;;;;;5.45;3.92;;;21.20;99.90;;;;;;5051292;28;20616;-59
2023/08/19 04:26:34;;;;;;;6.25;3.63;;;21.10;99.90;;;;;;5050739;28;20237;-59
2023/08/19 04:29:02;;;;;;;16.23;3.50;;;21.10;99.90;;;;;;5051818;28;20294;-59
2023/08/19 04:31:30;;;;;;;10.85;3.85;;;21.10;99.90;;;;;;5051405;28;20255;-59
2023/08/19 04:33:59;;;;;;;10.18;3.85;;;21.00;99.90;;;;;;5051610;28;20285;-58
2023/08/19 04:36:27;;;;;;;6.82;3.90;;;21.00;99.90;;;;;;5051042;28;20237;-59
2023/08/19 04:38:56;;;;;;;4.60;3.70;;;21.00;99.90;;;;;;5051012;28;20637;-58
2023/08/19 04:41:24;;;;;;;8.68;3.47;;;21.00;99.90;;;;;;5050746;28;20247;-59
2023/08/19 04:43:51;;;;;;;5.10;3.60;;;21.00;99.90;;;;;;5051079;28;20278;-57
2023/08/19 04:46:19;;;;;;;6.65;3.35;;;21.00;99.90;;;;;;5050881;28;20209;-60
2023/08/19 04:48:47;;;;;;;6.45;3.58;;;21.00;99.90;;;;;;5050222;28;20216;-60
2023/08/19 04:51:17;;;;;;;4.20;3.63;;;21.00;99.90;;;;;;5049659;28;20209;-60
2023/08/19 04:53:44;;;;;;;3.65;3.28;;;21.00;99.90;;;;;;5050938;28;20693;-60
2023/08/19 04:56:12;;;;;;;3.92;3.13;;;21.10;99.90;;;;;;5050947;28;20299;-60
2023/08/19 04:58:43;;;;;;;5.43;3.65;;;21.10;99.90;;;;;;5044055;28;20206;-60
2023/08/19 05:01:11;;;;;;;4.22;3.72;;;21.20;99.90;;;;;;5045886;28;20229;-60
2023/08/19 05:03:39;;;;;;;9.73;3.83;;;21.20;99.90;;;;;;5044749;28;20229;-57
2023/08/19 05:06:07;;;;;;;5.43;3.72;;;21.20;99.90;;;;;;5048970;28;20205;-58
2023/08/19 05:08:36;;;;;;;5.00;3.13;;;21.30;99.90;;;;;;5047677;28;20225;-55
2023/08/19 05:11:04;;;;;;;4.50;3.05;;;21.20;99.90;;;;;;5046125;28;20716;-53
2023/08/19 05:13:32;;;;;;;4.65;3.08;;;21.30;99.90;;;;;;5049338;28;20298;-54
2023/08/19 05:16:00;;;;;;;7.00;3.67;;;21.30;99.90;;;;;;5050064;28;20386;-54
2023/08/19 05:18:28;;;;;;;4.50;3.53;;;21.40;99.90;;;;;;5050549;28;20205;-53
2023/08/19 05:20:56;;;;;;;6.65;3.85;;;21.40;99.90;;;;;;5050617;28;20202;-54
2023/08/19 05:23:24;;;;;;;4.05;3.65;;;21.50;99.90;;;;;;5050491;28;20217;-54
2023/08/19 05:25:53;;;;;;;3.80;3.42;;;21.50;99.90;;;;;;5050611;28;20205;-54
2023/08/19 05:28:21;;;;;;;5.45;3.65;;;21.60;99.90;;;;;;5050067;28;20206;-55
2023/08/19 05:30:49;;;;;;;3.65;3.45;;;21.60;99.90;;;;;;5053054;28;20249;-55
2023/08/19 05:33:17;;;;;;;5.05;3.88;;;21.60;99.90;;;;;;5053601;28;20237;-53
2023/08/19 05:35:45;;;;;;;8.00;3.78;;;21.60;99.90;;;;;;5053642;28;20229;-54
2023/08/19 05:38:13;;;;;;;7.00;3.55;;;21.60;99.90;;;;;;5053929;28;20216;-53
2023/08/19 05:40:40;;;;;;;9.88;3.50;;;21.60;99.90;;;;;;5053273;28;20248;-53
2023/08/19 05:43:10;;;;;;;8.20;3.42;;;21.60;99.90;;;;;;5053822;28;20221;-55
2023/08/19 05:45:37;;;;;;;5.63;3.75;;;21.60;99.90;;;;;;5053409;28;20213;-55
2023/08/19 05:48:06;;;;;;;8.60;3.58;;;21.60;99.90;;;;;;5054429;28;20236;-56
2023/08/19 05:50:35;;;;;;;8.98;3.33;;;21.60;99.90;;;;;;5052508;28;20663;-54
2023/08/19 05:53:03;;;;;;;10.88;4.07;;;21.60;99.90;;;;;;5053942;28;20225;-53
2023/08/19 05:55:31;;;;;;;8.68;4.10;;;21.60;99.90;;;;;;5054554;28;20324;-53
2023/08/19 05:57:59;;;;;;;10.35;3.88;;;21.60;99.90;;;;;;5059187;28;20367;-54
2023/08/19 06:00:28;;;;;;;12.55;4.05;;;21.60;99.90;;;;;;5055034;28;20228;-57
2023/08/19 06:02:56;;;;;;;4.72;3.58;;;21.70;99.90;;;;;;5055090;28;20229;-55
2023/08/19 06:05:24;;;;;;;5.60;3.75;;;21.70;99.90;;;;;;5052393;28;20226;-55
2023/08/19 06:07:52;;;;;;;9.65;4.10;;;21.80;99.90;;;;;;5050214;28;20198;-55
2023/08/19 06:10:20;;;;;;;6.40;3.58;;;21.90;99.90;;;;;;5052559;28;20813;-54
2023/08/19 06:12:48;;;;;;;6.82;3.75;;;22.00;99.90;;;;;;5053484;28;20912;-62
2023/08/19 06:15:16;;;;;;;4.57;3.35;;;22.10;99.90;;;;;;5052548;28;20213;-64
2023/08/19 06:17:45;;;;;;;3.72;3.30;;;22.10;99.90;;;;;;5053613;28;20258;-63
2023/08/19 06:20:13;;;;;;;4.90;3.42;;;22.20;99.90;;;;;;5053410;28;20201;-63
2023/08/19 06:22:41;;;;;;;4.70;3.53;;;22.30;99.90;;;;;;5052812;28;20274;-63
2023/08/19 06:25:09;;;;;;;7.47;3.83;;;22.30;99.90;;;;;;5053011;28;20206;-63
2023/08/19 06:27:37;;;;;;;6.57;3.65;;;22.40;99.90;;;;;;5053806;28;20236;-64
2023/08/19 06:30:06;;;;;;;7.18;3.72;;;22.40;99.90;;;;;;5052948;28;20638;-63
2023/08/19 06:32:35;;;;;;;5.70;3.45;;;22.40;99.90;;;;;;5053527;28;20229;-63
2023/08/19 06:35:05;;;;;;;8.25;4.00;;;22.50;99.90;;;;;;5052963;28;20205;-63
2023/08/19 06:37:39;;;;;;;4.22;3.88;;;22.60;99.90;;;;;;5051991;28;20241;-63
2023/08/19 06:40:08;;;;;;;3.72;3.22;;;22.60;99.90;;;;;;5050227;28;20289;-63
2023/08/19 06:42:36;;;;;;;5.22;3.70;;;22.70;99.90;;;;;;5053005;28;20712;-63
2023/08/19 06:45:06;;;;;;;6.03;3.58;;;22.80;99.90;;;;;;5051265;28;20248;-63
2023/08/19 06:47:34;;;;;;;6.38;3.90;;;22.90;99.90;;;;;;5053476;28;20205;-63
2023/08/19 06:50:04;;;;;;;4.25;3.47;;;23.00;99.90;;;;;;5052728;28;20216;-63
2023/08/19 06:52:33;;;;;;;5.60;3.80;;;23.10;99.90;;;;;;5053154;28;20217;-63
2023/08/19 06:55:01;;;;;;;8.20;4.00;;;23.20;99.90;;;;;;5049440;28;20280;-63
2023/08/19 06:57:30;;;;;;;3.70;3.40;;;23.30;99.90;;;;;;5052945;28;20240;-63
2023/08/19 07:00:04;;;;;;;4.25;3.85;;;23.40;99.90;;;;;;5052695;28;20692;-63
2023/08/19 07:02:33;;;;;;;3.80;3.38;;;23.40;99.90;;;;;;5050245;28;20240;-63
2023/08/19 07:05:01;;;;;;;6.43;4.13;;;23.40;99.90;;;;;;5053034;28;20278;-63
2023/08/19 07:07:31;;;;;;;5.63;3.75;;;23.50;99.90;;;;;;5052267;28;20205;-62
2023/08/19 07:09:59;;;;;;;4.95;3.20;;;23.60;99.90;;;;;;5047203;28;20255;-63
2023/08/19 07:12:28;;;;;;;6.75;3.63;;;23.70;99.90;;;;;;5052293;28;20229;-63
2023/08/19 07:14:56;;;;;;;9.23;3.42;;;23.80;99.90;;;;;;5052009;28;20209;-63
2023/08/19 07:17:24;;;;;;;8.60;3.70;;;23.80;99.90;;;;;;5052254;28;20247;-63
2023/08/19 07:19:52;;;;;;;9.75;3.75;;;23.90;99.90;;;;;;5051227;28;20252;-63
2023/08/19 07:22:20;;;;;;;6.03;3.17;;;23.90;99.90;;;;;;5047916;28;20221;-63
2023/08/19 07:24:51;;;;;;;3.05;2.80;;;24.00;99.90;;;;;;5050267;28;20254;-63
2023/08/19 07:27:19;;;;;;;5.35;3.50;;;24.00;99.90;;;;;;5050386;28;20283;-63
2023/08/19 07:29:51;;;;;;;3.80;3.25;;;24.00;99.90;;;;;;5050303;28;20209;-63
2023/08/19 07:32:20;;;;;;;4.32;3.72;;;24.00;99.90;;;;;;5055405;28;20221;-63
2023/08/19 07:34:48;;;;;;;4.15;3.30;;;24.10;99.90;;;;;;5031561;28;20743;-63
2023/08/19 07:37:16;;;;;;;9.00;3.47;;;24.10;99.90;;;;;;5042546;28;20240;-63
2023/08/19 07:39:44;;;;;;;5.25;3.55;;;24.10;99.90;;;;;;5051747;28;20288;-63
2023/08/19 07:42:13;;;;;;;8.07;4.18;;;24.20;99.90;;;;;;5051431;28;20268;-63
2023/08/19 07:44:41;;;;;;;6.70;3.22;;;24.30;99.90;;;;;;5051860;28;20237;-63
2023/08/19 07:47:09;;;;;;;6.18;3.58;;;24.40;99.90;;;;;;5051031;28;20347;-63
2023/08/19 07:49:38;;;;;;;4.20;3.20;;;24.50;99.90;;;;;;5045116;28;20206;-63
2023/08/19 07:52:06;;;;;;;3.50;3.20;;;24.70;99.90;;;;;;5049834;28;20229;-63
2023/08/19 07:54:35;;;;;;;7.38;3.20;;;24.80;99.90;;;;;;5051653;28;20259;-63
2023/08/19 07:57:03;;;;;;;3.53;3.20;;;25.00;99.90;;;;;;5051682;28;20599;-63
2023/08/19 07:59:34;;;;;;;11.15;3.67;;;25.20;99.90;;;;;;5051880;28;20206;-63
2023/08/19 08:02:02;;;;;;;3.88;3.50;;;25.40;99.90;;;;;;5051683;28;20236;-63
2023/08/19 08:04:30;;;;;;;7.35;3.08;;;25.50;99.90;;;;;;5051935;28;20259;-63
2023/08/19 08:06:58;;;;;;;6.93;3.45;;;25.50;99.90;;;;;;5050510;28;20206;-63
2023/08/19 08:09:26;;;;;;;4.90;3.40;;;25.60;99.90;;;;;;5051121;28;20267;-63
2023/08/19 08:11:53;;;;;;;5.40;3.67;;;25.60;99.90;;;;;;5051037;28;20265;-63
2023/08/19 08:14:21;;;;;;;6.22;3.22;;;25.70;99.90;;;;;;5051502;28;20260;-63
2023/08/19 08:16:51;;;;;;;5.10;3.67;;;25.80;99.90;;;;;;5050541;28;20247;-63
2023/08/19 08:19:22;;;;;;;4.82;3.75;;;26.00;99.90;;;;;;5051440;28;20205;-63
2023/08/19 08:21:50;;;;;;;9.60;3.58;;;26.10;99.90;;;;;;5052035;28;20229;-63
2023/08/19 08:24:18;;;;;;;3.47;3.28;;;26.30;99.90;;;;;;5050993;28;20229;-63
2023/08/19 08:26:46;;;;;;;6.35;3.50;;;26.50;99.90;;;;;;5050569;28;20297;-63
2023/08/19 08:29:14;;;;;;;5.00;3.28;;;26.80;99.90;;;;;;5050267;28;20248;-63
2023/08/19 08:31:42;;;;;;;10.18;3.50;;;27.00;99.90;;;;;;5051265;28;20260;-63
2023/08/19 08:34:11;;;;;;;4.03;3.10;;;27.20;99.90;;;;;;5050531;28;20293;-63
2023/08/19 08:36:39;;;;;;;5.50;3.55;;;27.40;99.90;;;;;;5050592;28;20259;-63
2023/08/19 08:39:07;;;;;;;7.35;3.20;;;27.60;99.90;;;;;;5050487;28;20203;-63
2023/08/19 08:41:36;;;;;;;4.75;3.00;;;27.60;99.90;;;;;;5050528;28;20236;-63
2023/08/19 08:44:04;;;;;;;9.65;3.25;;;27.60;99.90;;;;;;5050953;28;20245;-63
2023/08/19 08:46:32;;;;;;;4.93;3.70;;;27.70;99.90;;;;;;5050003;28;20221;-63
2023/08/19 08:49:00;;;;;;;7.63;3.33;;;27.70;99.90;;;;;;5049482;28;20255;-63
2023/08/19 08:51:29;;;;;;;6.22;3.20;;;27.70;99.90;;;;;;5048150;28;20229;-63
2023/08/19 08:53:57;;;;;;;7.13;3.50;;;27.70;99.90;;;;;;5040709;28;20790;-63
2023/08/19 08:56:28;;;;;;;7.57;3.67;;;27.70;99.90;;;;;;5058266;28;20288;-64
2023/08/19 08:58:56;;;;;;;8.50;3.05;;;27.70;99.90;;;;;;5047220;28;20263;-64
2023/08/19 09:01:24;;;;;;;5.78;3.25;;;27.70;99.90;;;;;;5048381;28;20695;-63
2023/08/19 09:03:52;;;;;;;6.90;3.33;;;27.60;99.90;;;;;;5051107;28;20296;-64
2023/08/19 09:06:20;;;;;;;4.22;3.17;;;27.50;99.90;;;;;;5054662;28;20643;-64
2023/08/19 09:08:52;;;;;;;7.15;3.25;;;27.50;99.90;;;;;;5051819;28;20309;-64
2023/08/19 09:11:23;;;;;;;3.30;3.00;;;27.50;99.90;;;;;;5056575;28;20292;-64
2023/08/19 09:13:53;;;;;;;3.67;3.40;;;27.40;99.90;;;;;;5053413;28;20225;-63
2023/08/19 09:16:21;;;;;;;8.38;3.60;;;27.40;99.90;;;;;;5053110;28;20285;-63
2023/08/19 09:18:49;;;;;;;6.75;3.55;;;27.40;99.90;;;;;;5057067;28;20255;-63
2023/08/19 09:21:16;;;;;;;5.45;3.65;;;27.30;99.90;;;;;;5044661;28;20206;-63
2023/08/19 09:23:44;;;;;;;4.32;3.15;;;27.40;99.90;;;;;;5057118;28;20251;-63
2023/08/19 09:26:14;;;;;;;5.07;3.35;;;27.40;99.90;;;;;;5054113;28;20205;-63
2023/08/19 09:28:42;;;;;;;7.03;3.60;;;27.40;99.90;;;;;;5053402;28;20197;-63
2023/08/19 09:31:20;;;;;;;7.15;3.60;;;27.40;99.90;;;;;;5053847;28;20206;-63
2023/08/19 09:33:48;;;;;;;4.97;3.38;;;27.40;99.90;;;;;;5053595;28;20245;-63
2023/08/19 09:36:16;;;;;;;6.90;3.55;;;27.40;99.90;;;;;;5054307;28;20208;-63
2023/08/19 09:38:44;;;;;;;5.38;3.80;;;27.40;99.90;;;;;;5052804;28;20206;-63
2023/08/19 09:41:13;;;;;;;6.57;4.35;;;27.40;99.90;;;;;;5054747;28;20209;-63
2023/08/19 09:43:41;;;;;;;7.63;3.58;;;27.30;99.90;;;;;;5054280;28;20587;-63
2023/08/19 09:46:09;;;;;;;8.38;3.85;;;27.30;99.90;;;;;;5054114;28;20692;-63
2023/08/19 09:48:39;;;;;;;7.45;3.45;;;27.30;99.90;;;;;;5054356;28;20213;-63
2023/08/19 09:51:08;;;;;;;7.18;3.92;;;27.30;99.90;;;;;;5053697;28;20206;-63
2023/08/19 09:53:38;;;;;;;6.38;3.40;;;27.30;99.90;;;;;;5053280;28;20248;-63
2023/08/19 09:56:06;;;;;;;6.38;3.78;;;27.30;99.90;;;;;;5055811;28;20208;-63
2023/08/19 09:58:36;;;;;;;6.85;3.60;;;27.30;99.90;;;;;;5053192;28;20197;-63
2023/08/19 10:01:04;;;;;;;6.65;3.95;;;27.30;99.90;;;;;;5059004;28;20256;-63
2023/08/19 10:03:32;;;;;;;8.45;3.63;;;27.40;99.90;;;;;;5043918;28;20713;-64
2023/08/19 10:06:00;;;;;;;6.13;3.38;;;27.40;99.90;;;;;;5049896;28;20259;-64
2023/08/19 10:08:28;;;;;;;9.48;3.40;;;27.50;99.90;;;;;;5054257;28;20202;-64
2023/08/19 10:10:56;;;;;;;10.00;4.07;;;27.50;99.90;;;;;;5052206;28;20287;-64
2023/08/19 10:13:25;;;;;;;8.07;3.50;;;27.60;99.90;;;;;;5050766;28;20240;-64
2023/08/19 10:15:55;;;;;;;5.13;3.83;;;27.70;99.90;;;;;;5047121;28;20238;-64
2023/08/19 10:18:24;;;;;;;7.28;3.90;;;27.80;99.90;;;;;;5051169;28;20712;-64
2023/08/19 10:20:53;;;;;;;6.88;3.65;;;28.00;99.90;;;;;;5052872;28;20255;-63
2023/08/19 10:23:22;;;;;;;10.57;4.18;;;28.10;99.90;;;;;;5053243;28;20217;-64
2023/08/19 10:25:50;;;;;;;7.28;4.00;;;28.30;99.90;;;;;;5047710;28;20723;-64
2023/08/19 10:28:23;;;;;;;8.50;4.18;;;28.50;99.90;;;;;;5045990;28;20280;-64
2023/08/19 10:31:09;;;;;;;4.53;3.78;;;28.70;99.90;;;;;;5048768;28;20201;-64
2023/08/19 10:33:42;;;;;;;8.35;3.50;;;29.00;99.90;;;;;;5050105;28;20229;-64
2023/08/19 10:36:14;;;;;;;5.28;3.90;;;29.10;99.90;;;;;;5049761;28;20209;-63
2023/08/19 10:38:46;;;;;;;5.43;3.75;;;29.20;99.90;;;;;;5044106;28;20538;-64
2023/08/19 10:41:28;;;;;;;5.65;4.20;;;29.10;99.90;;;;;;5052815;28;20292;-63
2023/08/19 10:43:57;;;;;;;5.07;3.80;;;29.00;99.90;;;;;;5052515;28;20201;-63
2023/08/19 10:46:31;;;;;;;7.60;4.10;;;29.00;99.90;;;;;;5052977;28;20209;-63
2023/08/19 10:48:59;;;;;;;9.95;4.50;;;29.10;99.90;;;;;;5052185;28;20584;-64
2023/08/19 10:51:47;;;;;;;7.32;4.15;;;29.20;99.90;;;;;;5052301;28;20248;-64
2023/08/19 10:54:15;;;;;;;9.32;4.50;;;29.50;99.90;;;;;;5052930;28;20233;-64
2023/08/19 10:56:45;;;;;;;7.90;3.90;;;29.60;99.90;;;;;;5052979;28;20205;-64
2023/08/19 10:59:13;;;;;;;8.93;3.97;;;29.70;99.90;;;;;;5052440;28;20288;-64
2023/08/19 11:01:42;;;;;;;7.18;4.38;;;29.80;99.90;;;;;;5051202;28;20260;-65
2023/08/19 11:04:10;;;;;;;9.80;4.50;;;30.00;99.90;;;;;;5051097;28;20194;-63
2023/08/19 11:06:39;;;;;;;7.40;4.05;;;30.10;99.90;;;;;;5044662;28;20213;-63
2023/08/19 11:09:08;;;;;;;7.82;4.03;;;30.40;99.90;;;;;;5050997;28;20251;-63
2023/08/19 11:11:35;;;;;;;4.85;4.25;;;30.60;99.90;;;;;;5052321;28;20578;-63
2023/08/19 11:14:04;;;;;;;10.98;4.13;;;30.90;99.90;;;;;;5052622;28;20225;-63
2023/08/19 11:16:32;;;;;;;6.82;4.70;;;30.90;99.90;;;;;;5052236;28;20252;-63
2023/08/19 11:19:02;;;;;;;7.20;4.25;;;31.00;99.90;;;;;;5052305;28;20201;-63
2023/08/19 11:21:31;;;;;;;4.95;4.43;;;31.00;99.90;;;;;;5052207;28;20639;-62
2023/08/19 11:23:59;;;;;;;12.93;4.88;;;31.00;99.90;;;;;;5052624;28;20185;-62
2023/08/19 11:26:27;;;;;;;6.25;4.82;;;31.00;99.90;;;;;;5051681;28;20209;-63
2023/08/19 11:28:55;;;;;;;6.43;4.63;;;31.00;99.90;;;;;;5052170;28;20251;-63
2023/08/19 11:31:24;;;;;;;5.93;4.40;;;30.90;99.90;;;;;;5051998;28;20834;-63
2023/08/19 11:33:53;;;;;;;9.73;5.00;;;30.70;99.90;;;;;;5052493;28;20229;-63
2023/08/19 11:36:26;;;;;;;6.95;5.05;;;30.50;99.90;;;;;;5052277;28;20228;-63
2023/08/19 11:38:56;;;;;;;8.45;4.68;;;30.40;99.90;;;;;;5052284;28;20236;-63
2023/08/19 11:41:24;;;;;;;9.40;4.63;;;30.30;99.90;;;;;;5052276;28;20209;-63
2023/08/19 11:43:53;;;;;;;9.27;5.60;;;30.20;99.90;;;;;;5051256;28;20359;-63
2023/08/19 11:46:21;;;;;;;9.25;5.15;;;30.20;99.90;;;;;;5051147;28;20209;-63
2023/08/19 11:48:49;;;;;;;9.38;5.45;;;30.00;99.90;;;;;;5051960;28;20237;-63
2023/08/19 11:51:17;;;;;;;12.63;4.97;;;29.90;99.90;;;;;;5051757;28;20201;-63
2023/08/19 11:53:52;;;;;;;7.15;4.63;;;29.80;99.90;;;;;;5051952;28;20232;-63
2023/08/19 11:56:20;;;;;;;8.88;5.22;;;29.70;99.90;;;;;;5051449;28;20205;-63
2023/08/19 11:58:52;;;;;;;10.55;5.47;;;29.70;99.90;;;;;;5051718;28;20201;-63
2023/08/19 12:01:21;;;;;;;10.70;5.40;;;29.60;99.90;;;;;;5051092;28;20274;-63
2023/08/19 12:03:50;;;;;;;6.90;4.82;;;29.50;99.90;;;;;;5051526;28;20197;-62
2023/08/19 12:06:19;;;;;;;6.57;4.78;;;29.40;99.90;;;;;;5051470;28;20213;-63
2023/08/19 12:08:47;;;;;;;7.35;4.95;;;29.30;99.90;;;;;;5051757;28;20259;-63
2023/08/19 12:11:24;;;;;;;7.65;5.20;;;29.20;99.90;;;;;;5051824;28;20220;-63
2023/08/19 12:13:52;;;;;;;7.95;5.50;;;29.10;99.90;;;;;;5051862;28;20225;-63
2023/08/19 12:16:20;;;;;;;9.07;5.03;;;29.00;99.90;;;;;;5051171;28;20240;-63
2023/08/19 12:18:48;;;;;;;12.65;5.53;;;28.90;99.90;;;;;;5051756;28;20259;-63
2023/08/19 12:21:17;;;;;;;5.60;5.03;;;28.90;99.90;;;;;;5051161;28;20587;-63
2023/08/19 12:23:45;;;;;;;9.68;5.10;;;28.80;99.90;;;;;;5051064;28;20291;-63
2023/08/19 12:26:13;;;;;;;10.77;5.00;;;28.70;99.90;;;;;;5049735;28;20216;-64
2023/08/19 12:28:43;;;;;;;11.18;5.05;;;28.60;99.90;;;;;;5051529;28;20301;-64
2023/08/19 12:31:11;;;;;;;9.20;5.30;;;28.60;99.90;;;;;;5051593;28;20212;-64
2023/08/19 12:33:39;;;;;;;10.10;5.28;;;28.50;99.90;;;;;;5051192;28;20255;-64
2023/08/19 12:36:07;;;;;;;9.20;5.35;;;28.50;99.90;;;;;;5050649;28;20645;-63
2023/08/19 12:38:43;;;;;;;5.72;5.13;;;28.50;99.90;;;;;;5050896;28;20216;-65
2023/08/19 12:41:11;;;;;;;10.00;6.00;;;28.50;99.90;;;;;;5055479;28;20209;-63
2023/08/19 12:43:39;;;;;;;6.65;5.53;;;28.50;99.90;;;;;;5055595;28;20225;-63
2023/08/19 12:46:09;;;;;;;8.13;5.40;;;28.40;99.90;;;;;;5045167;28;20193;-64
2023/08/19 12:48:37;;;;;;;8.77;5.85;;;28.40;99.90;;;;;;5045703;28;20224;-63
2023/08/19 12:51:05;;;;;;;12.68;5.78;;;28.40;99.90;;;;;;5045909;28;20251;-64
2023/08/19 12:53:33;;;;;;;10.95;6.50;;;28.40;99.90;;;;;;5044678;28;20257;-62